Time;durP1;ratioP1;P1;durP2;ratioP2;P2;SDS_P1;SDS_P2;PMS_P1;PMS_P2;Temp;Humidity;BMP_temperature;BMP_pressure;BME280_temperature;BME280_humidity;BME280_pressure;Samples;Min_cycle;Max_cycle;Signal;HPM_P1;HPM_P2
2022/05/16 00:03:15;;;;;;;;;;;21.00;60.80;;;;;;8376631;28;19925;-68
2022/05/16 00:07:18;;;;;;;;;;;21.00;60.90;;;;;;8373555;28;20190;-68
2022/05/16 00:11:20;;;;;;;;;;;20.90;60.90;;;;;;8375182;28;19924;-68
2022/05/16 00:15:23;;;;;;;;;;;20.90;61.10;;;;;;8383836;28;19939;-67
2022/05/16 00:19:24;;;;;;;;;;;20.80;61.10;;;;;;8356492;28;20363;-68
2022/05/16 00:23:26;;;;;;;;;;;20.80;61.20;;;;;;8408962;28;19939;-68
2022/05/16 00:27:29;;;;;;;;;;;20.70;61.40;;;;;;8402061;28;19924;-68
2022/05/16 00:31:30;;;;;;;;;;;20.60;61.40;;;;;;8371464;28;19948;-68
2022/05/16 00:35:32;;;;;;;;;;;20.60;61.50;;;;;;8385925;28;20277;-68
2022/05/16 00:39:34;;;;;;;;;;;20.50;61.70;;;;;;8404442;28;19939;-68
2022/05/16 00:43:44;;;;;;;;;;;20.40;61.70;;;;;;8385816;28;19924;-68
2022/05/16 00:47:46;;;;;;;;;;;20.40;61.90;;;;;;8395072;28;19928;-68
2022/05/16 00:51:58;;;;;;;;;;;20.30;62.00;;;;;;8397544;28;19975;-68
2022/05/16 00:56:00;;;;;;;;;;;20.20;62.10;;;;;;8380582;28;19943;-68
2022/05/16 01:00:06;;;;;;;;;;;20.20;62.30;;;;;;8380403;28;19935;-68
2022/05/16 01:08:31;;;;;;;2.90;1.40;;;20.10;62.40;;;;;;8374288;28;20429;-68
2022/05/16 01:12:34;;;;;;;;;;;20.00;62.40;;;;;;8369929;28;20376;-68
2022/05/16 01:16:36;;;;;;;;;;;20.00;62.60;;;;;;8384227;28;20371;-68
2022/05/16 01:20:56;;;;;;;;;;;19.90;62.80;;;;;;8381908;28;19920;-68
2022/05/16 01:25:00;;;;;;;;;;;19.80;62.80;;;;;;8378218;28;19920;-68
2022/05/16 01:29:02;;;;;;;;;;;19.80;63.00;;;;;;8385596;28;19943;-68
2022/05/16 01:33:04;;;;;;;;;;;19.60;63.00;;;;;;8384559;28;19959;-68
2022/05/16 01:37:07;;;;;;;;;;;19.50;63.10;;;;;;8385494;28;19924;-68
2022/05/16 01:41:13;;;;;;;;;;;19.40;63.30;;;;;;8367561;28;19928;-68
2022/05/16 01:45:15;;;;;;;;;;;19.30;63.40;;;;;;8367619;28;20363;-68
2022/05/16 01:49:17;;;;;;;;;;;19.30;63.80;;;;;;8380883;28;20398;-67
2022/05/16 01:53:18;;;;;;;;;;;19.30;63.80;;;;;;8374476;28;19959;-68
2022/05/16 01:57:20;;;;;;;;;;;19.30;63.90;;;;;;8365797;28;19979;-68
2022/05/16 02:01:21;;;;;;;;;;;19.20;64.10;;;;;;8373758;28;19927;-68
2022/05/16 02:05:24;;;;;;;;;;;19.20;64.20;;;;;;8371077;28;19924;-67
2022/05/16 02:09:26;;;;;;;;;;;19.10;64.20;;;;;;8369952;28;19970;-67
2022/05/16 02:13:28;;;;;;;;;;;19.10;64.40;;;;;;8376641;28;19920;-68
2022/05/16 02:17:29;;;;;;;;;;;19.00;64.60;;;;;;8376374;28;19962;-68
2022/05/16 02:25:52;;;;;;;;;;;19.00;64.80;;;;;;8378282;28;19925;-67
2022/05/16 02:29:53;;;;;;;;;;;19.00;65.00;;;;;;8367342;28;20337;-68
2022/05/16 02:33:55;;;;;;;;;;;19.00;65.20;;;;;;8380058;28;19928;-68
2022/05/16 02:37:58;;;;;;;;;;;19.00;65.20;;;;;;8372096;28;19931;-68
2022/05/16 02:42:00;;;;;;;;;;;19.00;65.40;;;;;;8370338;28;19924;-68
2022/05/16 02:46:02;;;;;;;;;;;19.00;65.40;;;;;;8376410;28;19928;-68
2022/05/16 02:50:03;;;;;;;;;;;19.00;65.60;;;;;;8370186;28;19960;-67
2022/05/16 02:54:05;;;;;;;;;;;18.90;65.50;;;;;;8372145;28;20368;-68
2022/05/16 02:58:08;;;;;;;;;;;18.90;65.50;;;;;;8371250;28;19928;-68
2022/05/16 03:02:10;;;;;;;;;;;18.90;65.80;;;;;;8384664;28;19943;-68
2022/05/16 03:06:12;;;;;;;;;;;18.90;65.80;;;;;;8380409;28;19924;-68
2022/05/16 03:10:15;;;;;;;;;;;18.80;65.80;;;;;;8363242;28;19925;-68
2022/05/16 03:14:17;;;;;;;;;;;18.80;66.00;;;;;;8372667;28;20376;-68
2022/05/16 03:18:18;;;;;;;;;;;18.80;66.20;;;;;;8384069;28;19925;-68
2022/05/16 03:22:20;;;;;;;;;;;18.70;66.30;;;;;;8376474;28;19927;-67
2022/05/16 03:26:22;;;;;;;;;;;18.60;66.30;;;;;;8393451;28;19934;-68
2022/05/16 03:30:24;;;;;;;;;;;18.60;66.60;;;;;;8374128;28;19924;-68
2022/05/16 03:34:26;;;;;;;;;;;18.50;66.70;;;;;;8396942;28;20375;-68
2022/05/16 03:42:48;;;;;;;;;;;18.50;67.10;;;;;;8368790;28;20383;-68
2022/05/16 03:46:50;;;;;;;;;;;18.50;67.10;;;;;;8390740;28;19927;-68
2022/05/16 03:50:51;;;;;;;;;;;18.50;67.20;;;;;;8369596;28;20011;-68
2022/05/16 03:54:53;;;;;;;;;;;18.50;67.40;;;;;;8373484;28;20334;-68
2022/05/16 03:58:55;;;;;;;;;;;18.40;67.40;;;;;;8379716;28;19928;-68
2022/05/16 04:02:57;;;;;;;;;;;18.40;67.50;;;;;;8379707;28;19920;-68
2022/05/16 04:06:59;;;;;;;;;;;18.40;67.70;;;;;;8375596;28;19932;-68
2022/05/16 04:11:01;;;;;;;;;;;18.40;68.00;;;;;;8366053;28;19920;-68
2022/05/16 04:15:03;;;;;;;;;;;18.30;68.10;;;;;;8379333;28;19921;-68
2022/05/16 04:19:07;;;;;;;;;;;18.30;68.40;;;;;;8379275;28;20008;-68
2022/05/16 04:23:09;;;;;;;;;;;18.30;68.50;;;;;;8382211;28;20482;-68
2022/05/16 04:27:11;;;;;;;;;;;18.30;68.70;;;;;;8388466;28;19978;-68
2022/05/16 04:31:12;;;;;;;;;;;18.30;68.90;;;;;;8378201;28;20288;-68
2022/05/16 04:35:14;;;;;;;;;;;18.40;69.40;;;;;;8389142;28;20157;-68
2022/05/16 04:39:16;;;;;;;;;;;18.30;69.40;;;;;;8368999;28;19928;-68
2022/05/16 04:43:18;;;;;;;;;;;18.40;69.60;;;;;;8369594;28;19943;-68
2022/05/16 04:47:19;;;;;;;;;;;18.50;69.90;;;;;;8382571;28;20161;-68
2022/05/16 04:51:21;;;;;;;;;;;18.50;70.10;;;;;;8389041;28;19935;-68
2022/05/16 04:55:27;;;;;;;;;;;18.50;70.40;;;;;;8380971;28;20019;-68
2022/05/16 04:59:28;;;;;;;;;;;18.50;70.70;;;;;;8381571;28;20265;-68
2022/05/16 05:03:30;;;;;;;;;;;18.60;71.00;;;;;;8401191;28;19928;-68
2022/05/16 05:07:32;;;;;;;;;;;18.60;71.30;;;;;;8378225;28;19927;-68
2022/05/16 05:16:12;;;;;;;;;;;18.70;71.60;;;;;;8392126;28;19928;-68
2022/05/16 05:20:15;;;;;;;;;;;18.80;72.10;;;;;;8385337;28;20312;-68
2022/05/16 05:24:16;;;;;;;;;;;18.80;72.30;;;;;;8384141;28;19935;-68
2022/05/16 05:28:18;;;;;;;;;;;18.90;72.70;;;;;;8404641;27;19925;-68
2022/05/16 05:32:20;;;;;;;;;;;18.90;72.80;;;;;;8386880;28;19936;-68
2022/05/16 05:36:22;;;;;;;;;;;19.00;73.10;;;;;;8383967;28;19927;-68
2022/05/16 05:40:23;;;;;;;;;;;19.10;73.40;;;;;;8377415;28;19920;-68
2022/05/16 05:44:25;;;;;;;;;;;19.20;74.00;;;;;;8384853;28;20284;-68
2022/05/16 05:48:28;;;;;;;;;;;19.20;74.40;;;;;;8372654;28;19924;-68
2022/05/16 05:52:29;;;;;;;;;;;19.30;74.70;;;;;;8379251;28;19928;-67
2022/05/16 05:56:31;;;;;;;;;;;19.40;75.00;;;;;;8366652;28;20373;-68
2022/05/16 06:00:33;;;;;;;;;;;19.50;75.40;;;;;;8365503;28;19967;-68
2022/05/16 06:04:34;;;;;;;;;;;19.50;75.70;;;;;;8374779;28;20314;-67
2022/05/16 06:08:37;;;;;;;;;;;19.50;75.80;;;;;;8356343;28;20027;-68
2022/05/16 06:12:39;;;;;;;;;;;19.50;76.00;;;;;;8366218;28;19928;-68
2022/05/16 06:16:41;;;;;;;;;;;19.60;76.30;;;;;;8351437;28;20019;-68
2022/05/16 06:20:43;;;;;;;;;;;19.60;76.40;;;;;;8350462;28;19935;-68
2022/05/16 06:29:05;;;;;;;;;;;19.50;76.50;;;;;;8335473;28;20325;-68
2022/05/16 06:33:07;;;;;;;;;;;19.40;76.60;;;;;;8359626;28;19924;-68
2022/05/16 06:37:08;;;;;;;;;;;19.40;76.80;;;;;;8350678;28;20301;-67
2022/05/16 06:41:10;;;;;;;;;;;19.40;76.90;;;;;;8367297;28;19921;-68
2022/05/16 06:45:12;;;;;;;;;;;19.30;77.10;;;;;;8356654;28;19921;-68
2022/05/16 06:49:14;;;;;;;;;;;19.40;77.20;;;;;;8370047;28;19921;-67
2022/05/16 06:53:23;;;;;;;;;;;19.40;77.50;;;;;;8352400;28;20403;-67
2022/05/16 06:57:24;;;;;;;;;;;19.40;77.70;;;;;;8353033;28;19927;-67
2022/05/16 07:01:27;;;;;;;;;;;19.40;78.10;;;;;;8356013;28;19928;-67
2022/05/16 07:05:29;;;;;;;;;;;19.40;78.40;;;;;;8355976;28;20376;-68
2022/05/16 07:09:30;;;;;;;;;;;19.50;78.90;;;;;;8353738;28;19930;-68
2022/05/16 07:13:32;;;;;;;;;;;19.50;79.50;;;;;;8354385;28;19920;-68
2022/05/16 07:17:34;;;;;;;;;;;19.60;79.60;;;;;;8352183;28;20346;-68
2022/05/16 07:21:36;;;;;;;;;;;19.70;80.10;;;;;;8352353;28;19920;-68
2022/05/16 07:30:00;;;;;;;;;;;19.90;80.70;;;;;;8350684;28;19928;-68
2022/05/16 07:34:02;;;;;;;;;;;20.00;81.30;;;;;;8367373;28;19929;-68
2022/05/16 07:38:04;;;;;;;;;;;20.00;81.70;;;;;;8352377;28;19924;-68
2022/05/16 07:42:07;;;;;;;;;;;20.10;81.50;;;;;;8352475;28;19951;-68
2022/05/16 07:46:09;;;;;;;;;;;20.20;81.70;;;;;;8367186;28;19924;-68
2022/05/16 07:50:11;;;;;;;;;;;20.20;82.20;;;;;;8366863;28;19921;-68
2022/05/16 07:54:12;;;;;;;;;;;20.30;83.00;;;;;;8353362;28;19928;-68
2022/05/16 07:58:14;;;;;;;;;;;20.30;82.70;;;;;;8350025;28;19928;-68
2022/05/16 08:02:16;;;;;;;;;;;20.40;83.00;;;;;;8353330;28;19932;-68
2022/05/16 08:06:17;;;;;;;;;;;20.50;83.20;;;;;;8357968;28;19933;-68
2022/05/16 08:10:31;;;;;;;;;;;20.50;83.50;;;;;;8350673;28;19921;-68
2022/05/16 08:14:33;;;;;;;;;;;20.50;84.00;;;;;;8352403;28;19932;-68
2022/05/16 08:18:35;;;;;;;;;;;20.60;84.20;;;;;;8367505;28;19929;-68
2022/05/16 08:22:36;;;;;;;;;;;20.60;84.30;;;;;;8351674;28;19942;-68
2022/05/16 08:26:38;;;;;;;;;;;20.70;84.70;;;;;;8351583;28;19928;-68
2022/05/16 08:30:40;;;;;;;;;;;20.70;86.00;;;;;;8348365;28;19929;-68
2022/05/16 08:34:42;;;;;;;;;;;20.70;85.50;;;;;;8349681;28;20617;-68
2022/05/16 08:43:18;;;;;;;;;;;20.90;86.30;;;;;;8350116;28;20315;-68
2022/05/16 08:47:43;;;;;;;;;;;21.00;86.50;;;;;;8354896;28;19935;-67
2022/05/16 08:51:51;;;;;;;7.35;2.72;;;21.00;86.90;;;;;;8361190;28;19935;-68
2022/05/16 08:55:58;;;;;;;8.43;3.55;;;21.10;87.30;;;;;;8358944;28;20037;-68
2022/05/16 09:00:41;;;;;;;5.63;2.85;;;21.20;87.30;;;;;;8358566;28;20215;-68
2022/05/16 09:04:48;;;;;;;;;;;21.20;87.70;;;;;;8350138;28;20049;-68
2022/05/16 09:08:56;;;;;;;;;;;21.20;87.80;;;;;;8361643;28;19956;-68
2022/05/16 09:13:07;;;;;;;5.18;3.03;;;21.30;88.60;;;;;;8360232;28;19929;-68
2022/05/16 09:17:19;;;;;;;6.10;3.00;;;21.50;89.20;;;;;;8373205;28;20049;-68
2022/05/16 09:21:38;;;;;;;5.47;3.30;;;21.70;89.70;;;;;;8359598;28;20512;-67
2022/05/16 09:25:46;;;;;;;;;;;21.90;90.20;;;;;;8358291;28;20049;-67
2022/05/16 09:29:48;;;;;;;;;;;22.10;90.50;;;;;;8357774;28;19959;-67
2022/05/16 09:33:52;;;;;;;;;;;22.30;90.70;;;;;;8374017;28;19921;-67
2022/05/16 09:37:55;;;;;;;;;;;22.40;91.00;;;;;;8360047;28;19924;-67
2022/05/16 09:42:10;;;;;;;;;;;22.60;91.00;;;;;;8357115;28;20031;-68
2022/05/16 09:46:18;;;;;;;;;;;22.70;91.40;;;;;;8390107;27;19932;-67
2022/05/16 09:50:24;;;;;;;;;;;22.90;91.30;;;;;;8357492;28;19933;-67
2022/05/16 09:54:35;;;;;;;;;;;23.10;91.80;;;;;;8359559;28;19934;-67
2022/05/16 09:58:46;;;;;;;;;;;23.20;91.90;;;;;;8356885;28;25054;-68
2022/05/16 10:02:59;;;;;;;;;;;23.30;92.00;;;;;;8358032;28;19924;-67
2022/05/16 10:07:02;;;;;;;;;;;23.30;92.40;;;;;;8360020;28;19970;-68
2022/05/16 10:11:26;;;;;;;;;;;23.40;93.10;;;;;;8373604;28;19933;-68
2022/05/16 10:15:28;;;;;;;;;;;23.60;93.30;;;;;;8358990;28;19975;-68
2022/05/16 10:19:32;;;;;;;;;;;23.80;94.20;;;;;;8354163;28;20283;-68
2022/05/16 10:23:38;;;;;;;;;;;23.90;93.60;;;;;;8357146;28;19927;-68
2022/05/16 10:27:43;;;;;;;;;;;24.00;93.90;;;;;;8355369;28;19943;-68
2022/05/16 10:36:06;;;;;;;;;;;24.00;94.20;;;;;;8357362;28;19960;-68
2022/05/16 10:40:10;;;;;;;;;;;24.00;94.30;;;;;;8358188;28;19928;-68
2022/05/16 10:44:18;;;;;;;;;;;24.00;94.10;;;;;;8371135;28;19936;-68
2022/05/16 10:48:24;;;;;;;;;;;23.90;95.20;;;;;;8357404;28;19960;-68
2022/05/16 10:52:31;;;;;;;;;;;23.80;95.50;;;;;;8357625;28;19971;-68
2022/05/16 10:56:36;;;;;;;;;;;23.70;96.10;;;;;;8359514;28;19920;-68
2022/05/16 11:00:45;;;;;;;;;;;23.60;96.30;;;;;;8356273;28;24078;-68
2022/05/16 11:05:26;;;;;;;;;;;23.50;97.50;;;;;;8355493;28;20315;-68
2022/05/16 11:09:31;;;;;;;;;;;23.30;97.80;;;;;;8331946;28;19920;-68
2022/05/16 11:13:36;;;;;;;;;;;22.90;97.70;;;;;;8354307;28;19925;-68
2022/05/16 11:17:44;;;;;;;;;;;22.70;98.10;;;;;;8354768;28;20372;-68
2022/05/16 11:21:54;;;;;;;;;;;22.30;99.20;;;;;;8355984;28;19925;-68
2022/05/16 11:26:06;;;;;;;;;;;22.00;99.90;;;;;;8354138;28;19936;-69
2022/05/16 11:30:31;;;;;;;;;;;21.50;99.90;;;;;;8369965;28;19928;-68
2022/05/16 11:34:42;;;;;;;;;;;21.00;99.90;;;;;;8383632;28;19979;-68
2022/05/16 11:38:50;;;;;;;;;;;20.70;99.90;;;;;;8356823;28;19929;-68
2022/05/16 11:43:01;;;;;;;;;;;20.60;99.90;;;;;;8387022;28;20280;-68
2022/05/16 11:47:19;;;;;;;;;;;20.60;99.90;;;;;;8355936;28;19967;-68
2022/05/16 11:51:53;;;;;;;;;;;20.60;99.90;;;;;;8382973;28;20279;-68
2022/05/16 12:04:35;;;;;;;;;;;20.90;99.90;;;;;;8354849;28;19932;-68
2022/05/16 12:08:41;;;;;;;;;;;21.10;99.90;;;;;;8384676;28;20035;-68
2022/05/16 12:12:45;;;;;;;;;;;21.30;99.90;;;;;;8355943;28;19935;-68
2022/05/16 12:16:52;;;;;;;;;;;21.60;99.90;;;;;;8354453;28;19928;-68
2022/05/16 12:20:53;;;;;;;;;;;21.70;99.90;;;;;;8356703;28;19963;-68
2022/05/16 12:24:58;;;;;;;;;;;21.70;99.90;;;;;;8392360;27;20360;-68
2022/05/16 12:29:09;;;;;;;;;;;21.60;99.90;;;;;;8392442;28;19921;-68
2022/05/16 12:33:26;;;;;;;;;;;21.40;99.90;;;;;;8365062;28;19921;-68
2022/05/16 12:37:28;;;;;;;;;;;21.40;99.90;;;;;;8361263;28;19939;-68
2022/05/16 12:42:02;;;;;;;;;;;21.40;99.90;;;;;;8373674;28;19925;-68
2022/05/16 12:46:22;;;;;;;;;;;21.20;99.90;;;;;;8346530;28;19924;-68
2022/05/16 12:50:43;;;;;;;;;;;21.10;99.90;;;;;;8361528;28;20222;-68
2022/05/16 12:54:50;;;;;;;;;;;21.00;99.90;;;;;;8362608;28;20038;-67
2022/05/16 12:59:11;;;;;;;;;;;21.00;99.90;;;;;;8359684;28;19921;-70
2022/05/16 13:03:22;;;;;;;;;;;21.00;99.90;;;;;;8393536;27;19924;-68
2022/05/16 13:07:42;;;;;;;;;;;20.80;99.90;;;;;;8358999;28;19956;-68
2022/05/16 13:11:51;;;;;;;;;;;20.70;99.90;;;;;;8375673;28;19925;-68
2022/05/16 13:15:59;;;;;;;;;;;20.70;99.90;;;;;;8375351;28;19921;-67
2022/05/16 13:20:05;;;;;;;;;;;20.80;99.90;;;;;;8357827;28;19924;-67
2022/05/16 13:24:07;;;;;;;;;;;21.00;99.90;;;;;;8361320;28;19929;-67
2022/05/16 13:32:30;;;;;;;;;;;21.20;99.90;;;;;;8356881;28;19925;-67
2022/05/16 13:36:32;;;;;;;;;;;21.30;99.90;;;;;;8359391;28;19928;-67
2022/05/16 13:40:35;;;;;;;;;;;21.30;99.90;;;;;;8358583;28;19928;-67
2022/05/16 13:44:41;;;;;;;;;;;21.40;99.90;;;;;;8358520;28;19967;-67
2022/05/16 13:48:42;;;;;;;;;;;21.30;99.90;;;;;;8358259;28;20956;-67
2022/05/16 13:52:44;;;;;;;;;;;21.30;99.90;;;;;;8357949;28;19967;-68
2022/05/16 13:56:50;;;;;;;;;;;21.30;99.90;;;;;;8374058;28;20395;-67
2022/05/16 14:01:10;;;;;;;;;;;21.30;99.90;;;;;;8374293;28;20272;-67
2022/05/16 14:05:22;;;;;;;;;;;21.30;99.90;;;;;;8371949;28;19925;-67
2022/05/16 14:09:47;;;;;;;;;;;21.50;99.90;;;;;;8356650;28;19924;-67
2022/05/16 14:13:54;;;;;;;;;;;21.80;99.90;;;;;;8353584;28;20007;-68
2022/05/16 14:18:11;;;;;;;;;;;21.90;99.90;;;;;;8357311;28;19982;-68
2022/05/16 14:22:24;;;;;;;;;;;21.80;99.90;;;;;;8388445;28;19927;-67
2022/05/16 14:26:38;;;;;;;;;;;21.70;99.90;;;;;;8356819;28;19963;-67
2022/05/16 14:30:48;;;;;;;;;;;21.70;99.90;;;;;;8385965;28;19928;-67
2022/05/16 14:34:58;;;;;;;;;;;21.70;99.90;;;;;;8356068;28;19924;-67
2022/05/16 14:39:04;;;;;;;;;;;21.60;99.90;;;;;;8357576;28;20396;-67
2022/05/16 14:43:12;;;;;;;;;;;21.60;99.90;;;;;;8355496;28;19927;-67
2022/05/16 14:47:14;;;;;;;;;;;21.50;99.90;;;;;;8373677;28;19929;-67
2022/05/16 14:51:19;;;;;;;;;;;21.30;99.90;;;;;;8387167;28;20254;-67
2022/05/16 14:55:23;;;;;;;;;;;21.20;99.90;;;;;;8387386;27;19927;-67
2022/05/16 14:59:25;;;;;;;;;;;21.20;99.90;;;;;;8355366;28;19920;-67
2022/05/16 15:07:47;;;;;;;;;;;21.10;99.90;;;;;;8353670;28;19931;-67
2022/05/16 15:11:53;;;;;;;;;;;21.00;99.90;;;;;;8351631;28;19932;-67
2022/05/16 15:15:55;;;;;;;;;;;21.00;99.90;;;;;;8352895;28;19975;-67
2022/05/16 15:19:57;;;;;;;;;;;21.00;99.90;;;;;;8346761;28;20035;-67
2022/05/16 15:23:58;;;;;;;;;;;21.10;99.90;;;;;;8353808;28;20073;-67
2022/05/16 15:28:03;;;;;;;;;;;21.00;99.90;;;;;;8361280;28;19932;-67
2022/05/16 15:32:06;;;;;;;;;;;21.00;99.90;;;;;;8381749;28;19955;-67
2022/05/16 15:36:08;;;;;;;;;;;21.00;99.90;;;;;;8352533;28;20267;-67
2022/05/16 15:40:10;;;;;;;;;;;21.00;99.90;;;;;;8350919;28;19952;-67
2022/05/16 15:44:12;;;;;;;;;;;21.00;99.90;;;;;;8346914;28;19990;-67
2022/05/16 15:48:15;;;;;;;;;;;21.00;99.90;;;;;;8356910;28;19920;-67
2022/05/16 15:52:17;;;;;;;;;;;21.00;99.90;;;;;;8350604;28;20233;-67
2022/05/16 15:56:19;;;;;;;;;;;20.90;99.90;;;;;;8347952;28;19963;-67
2022/05/16 16:00:22;;;;;;;;;;;20.80;99.90;;;;;;8394556;27;20326;-67
2022/05/16 16:08:46;;;;;;;;;;;20.90;99.90;;;;;;8360779;28;19944;-67
2022/05/16 16:12:48;;;;;;;;;;;20.80;99.90;;;;;;8362736;28;19921;-67
2022/05/16 16:16:51;;;;;;;;;;;20.80;99.90;;;;;;8362491;28;19932;-67
2022/05/16 16:20:53;;;;;;;;;;;20.80;99.90;;;;;;8360562;28;19920;-67
2022/05/16 16:24:55;;;;;;;;;;;21.00;99.90;;;;;;8362337;28;19972;-67
2022/05/16 16:28:57;;;;;;;;;;;21.10;99.90;;;;;;8363140;28;20257;-67
2022/05/16 16:32:58;;;;;;;;;;;21.00;99.90;;;;;;8360137;28;19920;-67
2022/05/16 16:37:00;;;;;;;;;;;20.90;99.90;;;;;;8364226;28;19924;-67
2022/05/16 16:41:03;;;;;;;;;;;20.90;99.90;;;;;;8377577;28;19920;-67
2022/05/16 16:45:06;;;;;;;;;;;21.00;99.90;;;;;;8361021;28;19963;-67
2022/05/16 16:49:12;;;;;;;;;;;21.40;99.90;;;;;;8365392;28;19924;-67
2022/05/16 16:57:37;;;;;;;;;;;21.40;99.90;;;;;;8362948;28;20273;-67
2022/05/16 17:01:39;;;;;;;;;;;21.30;99.90;;;;;;8389077;28;19920;-67
2022/05/16 17:05:42;;;;;;;;;;;21.00;99.90;;;;;;8356247;28;19956;-68
2022/05/16 17:09:43;;;;;;;;;;;20.90;99.90;;;;;;8345222;28;20224;-67
2022/05/16 17:13:45;;;;;;;;;;;20.90;99.90;;;;;;8355518;28;19927;-67
2022/05/16 17:17:47;;;;;;;;;;;21.10;99.90;;;;;;8362030;28;20039;-67
2022/05/16 17:21:48;;;;;;;;;;;21.60;99.90;;;;;;8356232;28;19933;-67
2022/05/16 17:25:51;;;;;;;;;;;22.10;99.90;;;;;;8357506;28;20598;-67
2022/05/16 17:29:53;;;;;;;;;;;22.30;99.90;;;;;;8356186;28;19935;-68
2022/05/16 17:33:55;;;;;;;;;;;22.20;99.90;;;;;;8359648;28;19952;-67
2022/05/16 17:37:57;;;;;;;;;;;22.20;99.90;;;;;;8389809;27;20114;-67
2022/05/16 17:41:58;;;;;;;;;;;22.00;99.90;;;;;;8355530;28;19935;-67
2022/05/16 17:46:00;;;;;;;;;;;21.90;99.90;;;;;;8352195;28;19921;-67
2022/05/16 17:50:02;;;;;;;;;;;21.70;99.90;;;;;;8349257;28;19929;-67
2022/05/16 17:54:08;;;;;;;;;;;21.60;99.90;;;;;;8353168;28;20372;-67
2022/05/16 17:58:10;;;;;;;;;;;21.60;99.90;;;;;;8353760;28;19921;-67
2022/05/16 18:02:22;;;;;;;;;;;21.50;99.90;;;;;;8353765;28;19928;-68
2022/05/16 18:06:24;;;;;;;;;;;21.40;99.90;;;;;;8382114;28;20272;-67
2022/05/16 18:10:25;;;;;;;;;;;21.30;99.90;;;;;;8343391;28;20024;-67
2022/05/16 18:14:27;;;;;;;;;;;21.30;99.90;;;;;;8350915;28;19959;-67
2022/05/16 18:18:29;;;;;;;;;;;21.40;99.90;;;;;;8348755;28;19924;-67
2022/05/16 18:22:33;;;;;;;;;;;21.50;99.90;;;;;;8348262;28;19928;-67
2022/05/16 18:26:35;;;;;;;;;;;21.50;99.90;;;;;;8344034;28;19983;-67
2022/05/16 18:30:39;;;;;;;;;;;21.30;99.90;;;;;;8356229;28;19935;-68
2022/05/16 18:34:40;;;;;;;;;;;21.10;99.90;;;;;;8348556;28;19928;-68
2022/05/16 18:38:42;;;;;;;;;;;20.90;99.90;;;;;;8349576;28;20019;-67
2022/05/16 18:51:25;;;;;;;;;;;20.40;99.90;;;;;;8342282;28;19924;-69
2022/05/16 18:55:27;;;;;;;;;;;20.30;99.90;;;;;;8347377;28;19982;-69
2022/05/16 18:59:29;;;;;;;;;;;20.20;99.90;;;;;;8377822;27;20014;-69
2022/05/16 19:03:31;;;;;;;;;;;20.00;99.90;;;;;;8343090;28;20246;-69
2022/05/16 19:07:33;;;;;;;;;;;19.90;99.90;;;;;;8350720;28;20394;-69
2022/05/16 19:11:40;;;;;;;;;;;19.80;99.90;;;;;;8360157;28;19956;-69
2022/05/16 19:15:42;;;;;;;;;;;19.70;99.90;;;;;;8337493;28;19936;-69
2022/05/16 19:19:45;;;;;;;;;;;19.50;99.90;;;;;;8358808;28;20413;-70
2022/05/16 19:23:46;;;;;;;;;;;19.40;99.90;;;;;;8342424;28;20299;-67
2022/05/16 19:32:10;;;;;;;;;;;19.20;99.90;;;;;;8351142;28;20376;-67
2022/05/16 19:36:19;;;;;;;;;;;19.10;99.90;;;;;;8348323;28;19928;-70
2022/05/16 19:40:20;;;;;;;;;;;19.00;99.90;;;;;;8343480;28;20376;-70
2022/05/16 19:44:22;;;;;;;;;;;19.00;99.90;;;;;;8344584;28;19964;-70
2022/05/16 19:48:25;;;;;;;;;;;18.90;99.90;;;;;;8343157;28;20383;-69
2022/05/16 19:52:27;;;;;;;;;;;18.90;99.90;;;;;;8344765;28;19924;-69
2022/05/16 19:56:29;;;;;;;;;;;18.90;99.90;;;;;;8350055;28;20368;-69
2022/05/16 20:00:31;;;;;;;;;;;18.80;99.90;;;;;;8347383;28;19920;-69
2022/05/16 20:04:34;;;;;;;;;;;18.70;99.90;;;;;;8347179;28;19927;-69
2022/05/16 20:08:36;;;;;;;;;;;18.70;99.90;;;;;;8340555;28;19951;-69
2022/05/16 20:12:38;;;;;;;;;;;18.70;99.90;;;;;;8342256;28;20341;-69
2022/05/16 20:16:39;;;;;;;;;;;18.60;99.90;;;;;;8340814;28;20471;-69
2022/05/16 20:20:41;;;;;;;;;;;18.60;99.90;;;;;;8350375;28;20270;-69
2022/05/16 20:29:04;;;;;;;;;;;18.50;99.90;;;;;;8336830;28;19972;-69
2022/05/16 20:33:06;;;;;;;;;;;18.40;99.90;;;;;;8338007;28;20296;-70
2022/05/16 20:37:08;;;;;;;;;;;18.30;99.90;;;;;;8339505;28;19955;-69
2022/05/16 20:41:09;;;;;;;;;;;18.20;99.90;;;;;;8360906;28;20020;-70
2022/05/16 20:45:12;;;;;;;;;;;18.20;99.90;;;;;;8349180;28;19932;-70
2022/05/16 20:49:14;;;;;;;;;;;18.20;99.90;;;;;;8346796;28;19967;-70
2022/05/16 20:53:16;;;;;;;;;;;18.10;99.90;;;;;;8348350;28;19924;-70
2022/05/16 20:57:21;;;;;;;;;;;18.20;99.90;;;;;;8348194;28;19931;-70
2022/05/16 21:01:22;;;;;;;;;;;18.20;99.90;;;;;;8368627;28;19951;-70
2022/05/16 21:05:24;;;;;;;;;;;18.10;99.90;;;;;;8373514;28;19946;-70
2022/05/16 21:09:27;;;;;;;;;;;18.00;99.90;;;;;;8368633;28;20368;-70
2022/05/16 21:13:29;;;;;;;;;;;17.90;99.90;;;;;;8368800;28;20003;-70
2022/05/16 21:17:33;;;;;;;;;;;17.90;99.90;;;;;;8378763;28;20007;-70
2022/05/16 21:21:35;;;;;;;;;;;17.90;99.90;;;;;;8377279;28;19967;-70
2022/05/16 21:25:36;;;;;;;;;;;17.80;99.90;;;;;;8375538;28;20011;-70
2022/05/16 21:29:38;;;;;;;;;;;17.70;99.90;;;;;;8373695;28;20371;-70
2022/05/16 21:33:39;;;;;;;;;;;17.60;99.90;;;;;;8367065;28;19924;-70
2022/05/16 21:37:41;;;;;;;;;;;17.50;99.90;;;;;;8365417;28;19927;-70
2022/05/16 21:41:43;;;;;;;;;;;17.40;99.90;;;;;;8391817;28;20451;-70
2022/05/16 21:45:46;;;;;;;;;;;17.30;99.90;;;;;;8358848;28;20016;-70
2022/05/16 21:49:47;;;;;;;;;;;17.30;99.90;;;;;;8365275;28;19939;-70
2022/05/16 21:53:49;;;;;;;;;;;17.30;99.90;;;;;;8397412;27;19963;-70
2022/05/16 21:57:51;;;;;;;;;;;17.20;99.90;;;;;;8366096;28;19956;-70
2022/05/16 22:01:52;;;;;;;;;;;17.10;99.90;;;;;;8363400;28;19982;-70
2022/05/16 22:05:54;;;;;;;;;;;17.10;99.90;;;;;;8368834;28;20013;-70
2022/05/16 22:09:56;;;;;;;;;;;17.00;99.90;;;;;;8360634;28;20406;-70
2022/05/16 22:13:58;;;;;;;;;;;16.90;99.90;;;;;;8366414;28;20372;-70
2022/05/16 22:17:59;;;;;;;;;;;16.90;99.90;;;;;;8363376;28;19928;-70
2022/05/16 22:22:01;;;;;;;;;;;16.80;99.90;;;;;;8355486;28;19964;-70
2022/05/16 22:26:02;;;;;;;;;;;16.80;99.90;;;;;;8364520;28;19970;-70
2022/05/16 22:30:05;;;;;;;;;;;16.80;99.90;;;;;;8357432;28;19924;-70
2022/05/16 22:34:07;;;;;;;;;;;16.70;99.90;;;;;;8362207;28;19936;-70
2022/05/16 22:38:08;;;;;;;;;;;16.70;99.90;;;;;;8368331;28;20393;-70
2022/05/16 22:42:11;;;;;;;;;;;16.60;99.90;;;;;;8369493;28;19927;-70
2022/05/16 22:46:13;;;;;;;;;;;16.60;99.90;;;;;;8365475;28;19963;-70
2022/05/16 22:50:16;;;;;;;;;;;16.60;99.90;;;;;;8367313;28;20182;-70
2022/05/16 22:54:17;;;;;;;;;;;16.50;99.90;;;;;;8371638;28;19935;-70
2022/05/16 22:58:20;;;;;;;;;;;16.50;99.90;;;;;;8360825;28;19927;-70
2022/05/16 23:06:42;;;;;;;;;;;16.40;99.90;;;;;;8368885;28;19920;-70
2022/05/16 23:10:44;;;;;;;;;;;16.40;99.90;;;;;;8372164;28;19928;-70
2022/05/16 23:14:46;;;;;;;;;;;16.40;99.90;;;;;;8363752;28;19920;-70
2022/05/16 23:18:47;;;;;;;;;;;16.40;99.90;;;;;;8364106;28;19921;-70
2022/05/16 23:22:49;;;;;;;;;;;16.30;99.90;;;;;;8352348;28;19924;-70
2022/05/16 23:26:50;;;;;;;;;;;16.30;99.90;;;;;;8365168;28;19996;-70
2022/05/16 23:30:52;;;;;;;;;;;16.20;99.90;;;;;;8360677;28;19956;-70
2022/05/16 23:34:54;;;;;;;;;;;16.20;99.90;;;;;;8367005;28;19968;-70
2022/05/16 23:38:56;;;;;;;;;;;16.10;99.90;;;;;;8389969;28;19920;-70
2022/05/16 23:42:58;;;;;;;;;;;16.10;99.90;;;;;;8367245;28;19935;-70
2022/05/16 23:46:59;;;;;;;;;;;16.00;99.90;;;;;;8361326;28;19921;-70
2022/05/16 23:51:04;;;;;;;;;;;16.00;99.90;;;;;;8372090;28;19970;-70
2022/05/16 23:55:07;;;;;;;;;;;15.90;99.90;;;;;;8368936;28;19929;-70
2022/05/16 23:59:10;;;;;;;;;;;15.90;99.90;;;;;;8364979;28;19920;-70
